createdAt,value
2023-06-30T00:01:50.473Z,3.50
2023-06-30T00:04:23.859Z,3.42
2023-06-30T00:06:51.826Z,3.25
2023-06-30T00:09:22.123Z,3.22
2023-06-30T00:11:53.956Z,5.13
2023-06-30T00:14:22.127Z,3.35
2023-06-30T00:16:50.920Z,3.05
2023-06-30T00:19:19.819Z,2.92
2023-06-30T00:21:46.930Z,3.25
2023-06-30T00:24:14.381Z,3.42
2023-06-30T00:26:42.155Z,3.00
2023-06-30T00:29:10.338Z,3.40
2023-06-30T00:31:37.548Z,3.83
2023-06-30T00:34:04.636Z,3.30
2023-06-30T00:36:35.596Z,3.45
2023-06-30T00:39:04.085Z,3.67
2023-06-30T00:41:31.254Z,3.50
2023-06-30T00:43:59.407Z,3.53
2023-06-30T00:46:27.020Z,4.05
2023-06-30T00:48:56.219Z,3.60
2023-06-30T00:51:23.292Z,2.90
2023-06-30T00:53:50.299Z,3.17
2023-06-30T00:56:17.228Z,3.80
2023-06-30T00:58:45.527Z,3.80
2023-06-30T01:01:31.752Z,3.55
2023-06-30T01:04:39.601Z,3.42
2023-06-30T01:07:43.237Z,4.22
2023-06-30T01:10:24.106Z,4.13
2023-06-30T01:12:52.108Z,3.33
2023-06-30T01:15:20.045Z,3.47
2023-06-30T01:17:54.942Z,3.65
2023-06-30T01:20:22.737Z,3.38
2023-06-30T01:23:16.858Z,3.72
2023-06-30T01:25:47.251Z,3.95
2023-06-30T01:28:15.769Z,2.80
2023-06-30T01:30:43.046Z,3.17
2023-06-30T01:33:11.864Z,3.28
2023-06-30T01:35:38.834Z,3.65
2023-06-30T01:38:06.046Z,5.00
2023-06-30T01:40:33.500Z,3.85
2023-06-30T01:43:00.595Z,3.90
2023-06-30T01:45:29.916Z,3.20
2023-06-30T01:47:58.262Z,4.50
2023-06-30T01:50:27.020Z,3.38
2023-06-30T01:52:53.990Z,3.22
2023-06-30T01:55:22.073Z,3.65
2023-06-30T01:57:51.744Z,4.32
2023-06-30T02:00:19.310Z,3.25
2023-06-30T02:02:51.149Z,3.00
2023-06-30T02:05:18.326Z,3.40
2023-06-30T02:07:45.252Z,3.38
2023-06-30T02:10:12.359Z,4.30
2023-06-30T02:12:39.404Z,3.40
2023-06-30T02:15:07.823Z,4.13
2023-06-30T02:17:34.921Z,4.07
2023-06-30T02:20:04.313Z,3.65
2023-06-30T02:22:31.285Z,3.95
2023-06-30T02:24:58.420Z,3.92
2023-06-30T02:27:25.925Z,4.18
2023-06-30T02:29:52.945Z,6.70
2023-06-30T02:32:20.483Z,4.90
2023-06-30T02:34:47.533Z,4.70
2023-06-30T02:37:14.565Z,4.45
2023-06-30T02:39:42.457Z,4.25
2023-06-30T02:42:09.510Z,3.67
2023-06-30T02:44:36.497Z,4.30
2023-06-30T02:47:03.897Z,4.43
2023-06-30T02:49:32.513Z,4.55
2023-06-30T02:52:01.157Z,4.10
2023-06-30T02:54:28.325Z,4.68
2023-06-30T02:56:55.648Z,4.00
2023-06-30T02:59:24.056Z,4.60
2023-06-30T03:01:51.589Z,4.47
2023-06-30T03:04:18.600Z,4.60
2023-06-30T03:06:45.612Z,3.80
2023-06-30T03:09:14.517Z,4.70
2023-06-30T03:11:41.718Z,4.63
2023-06-30T03:14:08.818Z,5.70
2023-06-30T03:16:42.962Z,6.13
2023-06-30T03:19:10.838Z,4.63
2023-06-30T03:21:38.553Z,4.30
2023-06-30T03:24:05.753Z,4.90
2023-06-30T03:26:32.750Z,3.85
2023-06-30T03:29:02.025Z,5.28
2023-06-30T03:31:30.012Z,5.95
2023-06-30T03:33:57.484Z,5.22
2023-06-30T03:36:24.423Z,5.00
2023-06-30T03:38:51.910Z,4.45
2023-06-30T03:41:19.058Z,3.95
2023-06-30T03:43:46.140Z,4.93
2023-06-30T03:46:13.517Z,5.60
2023-06-30T03:48:40.534Z,4.57
2023-06-30T03:51:09.145Z,8.02
2023-06-30T03:53:36.281Z,4.82
2023-06-30T03:56:06.568Z,7.45
2023-06-30T03:58:33.596Z,5.00
2023-06-30T04:01:00.632Z,5.40
2023-06-30T04:03:28.317Z,5.22
2023-06-30T04:05:55.598Z,5.47
2023-06-30T04:08:22.739Z,5.68
2023-06-30T04:10:49.835Z,5.40
2023-06-30T04:13:16.824Z,5.97
2023-06-30T04:15:44.352Z,5.53
2023-06-30T04:18:11.516Z,5.20
2023-06-30T04:20:38.990Z,5.60
2023-06-30T04:23:05.907Z,5.45
2023-06-30T04:25:32.901Z,5.10
2023-06-30T04:27:59.925Z,5.13
2023-06-30T04:30:26.855Z,6.40
2023-06-30T04:32:53.843Z,5.63
2023-06-30T04:35:26.638Z,4.07
2023-06-30T04:37:54.035Z,5.68
2023-06-30T04:40:21.201Z,5.85
2023-06-30T04:42:48.295Z,4.55
2023-06-30T04:45:16.477Z,4.72
2023-06-30T04:47:45.974Z,5.20
2023-06-30T04:50:13.067Z,6.20
2023-06-30T04:52:40.177Z,7.45
2023-06-30T04:55:07.720Z,5.97
2023-06-30T04:57:34.724Z,5.50
2023-06-30T05:00:01.854Z,5.60
2023-06-30T05:02:28.914Z,5.85
2023-06-30T05:04:55.951Z,7.93
2023-06-30T05:07:23.266Z,6.28
2023-06-30T05:09:50.429Z,5.57
2023-06-30T05:12:17.563Z,5.32
2023-06-30T05:14:44.549Z,5.40
2023-06-30T05:17:11.729Z,5.50
2023-06-30T05:19:39.003Z,5.57
2023-06-30T05:22:06.437Z,4.55
2023-06-30T05:24:34.641Z,6.07
2023-06-30T05:27:03.008Z,7.10
2023-06-30T05:29:32.367Z,5.60
2023-06-30T05:31:59.432Z,11.32
2023-06-30T05:34:26.949Z,7.00
2023-06-30T05:36:55.906Z,7.85
2023-06-30T05:39:23.837Z,6.65
2023-06-30T05:41:50.853Z,6.25
2023-06-30T05:44:18.045Z,6.50
2023-06-30T05:46:45.162Z,7.97
2023-06-30T05:49:12.773Z,8.50
2023-06-30T05:51:39.918Z,6.78
2023-06-30T05:54:07.250Z,6.85
2023-06-30T05:56:34.302Z,7.80
2023-06-30T05:59:01.332Z,6.45
2023-06-30T06:01:28.403Z,6.35
2023-06-30T06:03:56.499Z,13.48
2023-06-30T06:06:24.034Z,22.45
2023-06-30T06:08:51.410Z,6.35
2023-06-30T06:11:18.640Z,7.25
2023-06-30T06:13:45.746Z,7.03
2023-06-30T06:16:12.866Z,8.13
2023-06-30T06:18:39.957Z,6.32
2023-06-30T06:21:07.033Z,7.00
2023-06-30T06:23:34.092Z,6.43
2023-06-30T06:26:02.918Z,6.20
2023-06-30T06:28:30.969Z,6.57
2023-06-30T06:30:58.361Z,6.00
2023-06-30T06:33:25.623Z,9.38
2023-06-30T06:35:53.616Z,5.82
2023-06-30T06:38:21.264Z,6.55
2023-06-30T06:40:48.572Z,5.63
2023-06-30T06:43:16.522Z,5.93
2023-06-30T06:45:44.241Z,6.10
2023-06-30T06:48:38.464Z,5.82
2023-06-30T06:51:07.069Z,6.50
2023-06-30T06:53:35.487Z,6.10
2023-06-30T06:56:03.783Z,6.10
2023-06-30T06:58:33.001Z,6.85
2023-06-30T07:01:00.138Z,6.57
2023-06-30T07:03:27.490Z,5.88
2023-06-30T07:05:56.777Z,5.45
2023-06-30T07:08:23.909Z,6.68
2023-06-30T07:10:51.866Z,5.15
2023-06-30T07:13:20.452Z,5.93
2023-06-30T07:15:49.179Z,5.55
2023-06-30T07:18:19.870Z,5.53
2023-06-30T07:20:51.734Z,5.70
2023-06-30T07:23:19.268Z,4.97
2023-06-30T07:25:47.805Z,5.30
2023-06-30T07:28:16.146Z,5.90
2023-06-30T07:30:46.329Z,6.70
2023-06-30T07:33:14.142Z,4.55
2023-06-30T07:35:41.867Z,5.22
2023-06-30T07:38:09.185Z,4.47
2023-06-30T07:43:06.476Z,5.63
2023-06-30T07:45:33.950Z,4.40
2023-06-30T07:48:01.014Z,4.93
2023-06-30T07:50:28.770Z,4.90
2023-06-30T07:52:55.910Z,5.13
2023-06-30T07:55:22.908Z,4.40
2023-06-30T07:57:50.227Z,4.30
2023-06-30T08:00:19.799Z,3.65
2023-06-30T08:02:48.166Z,4.68
2023-06-30T08:05:16.102Z,3.97
2023-06-30T08:07:49.214Z,4.38
2023-06-30T08:10:18.116Z,3.95
2023-06-30T08:12:45.391Z,4.10
2023-06-30T08:15:12.770Z,3.22
2023-06-30T08:17:50.882Z,3.03
2023-06-30T08:20:26.568Z,2.92
2023-06-30T08:22:55.061Z,2.50
2023-06-30T08:25:24.249Z,2.47
2023-06-30T08:27:51.641Z,2.83
2023-06-30T08:30:21.135Z,2.40
2023-06-30T08:32:51.081Z,3.03
2023-06-30T08:35:18.385Z,2.78
2023-06-30T08:37:46.214Z,2.65
2023-06-30T08:40:14.285Z,2.70
2023-06-30T08:42:45.760Z,3.72
2023-06-30T08:45:15.122Z,3.25
2023-06-30T08:47:42.340Z,3.05
2023-06-30T08:50:10.946Z,3.05
2023-06-30T08:52:38.170Z,2.50
2023-06-30T08:55:08.056Z,3.03
2023-06-30T08:57:36.453Z,3.20
2023-06-30T09:00:04.601Z,2.60
2023-06-30T09:02:31.981Z,2.95
2023-06-30T09:05:00.012Z,2.67
2023-06-30T09:07:27.667Z,8.27
2023-06-30T09:10:03.502Z,9.38
2023-06-30T09:12:30.847Z,2.90
2023-06-30T09:15:02.971Z,3.00
2023-06-30T09:17:31.902Z,2.90
2023-06-30T09:19:58.887Z,3.25
2023-06-30T09:22:53.719Z,2.88
2023-06-30T09:25:43.450Z,3.25
2023-06-30T09:28:13.553Z,3.30
2023-06-30T09:30:44.509Z,4.35
2023-06-30T09:33:14.528Z,2.58
2023-06-30T09:35:47.061Z,2.75
2023-06-30T09:38:18.711Z,3.25
2023-06-30T09:40:50.082Z,3.10
2023-06-30T09:43:18.992Z,3.67
2023-06-30T09:45:48.411Z,3.30
2023-06-30T09:48:16.241Z,3.20
2023-06-30T09:50:43.643Z,3.10
2023-06-30T09:53:10.868Z,3.25
2023-06-30T09:55:51.343Z,3.10
2023-06-30T10:00:47.271Z,3.45
2023-06-30T10:03:20.998Z,3.17
2023-06-30T10:05:51.588Z,3.10
2023-06-30T10:10:55.792Z,4.18
2023-06-30T10:13:23.435Z,3.17
2023-06-30T10:15:51.916Z,3.60
2023-06-30T10:18:19.752Z,6.97
2023-06-30T10:20:49.500Z,3.60
2023-06-30T10:23:20.404Z,3.35
2023-06-30T10:25:56.337Z,3.22
2023-06-30T10:28:23.637Z,3.00
2023-06-30T10:30:52.467Z,3.45
2023-06-30T10:33:20.251Z,2.90
2023-06-30T10:35:49.231Z,3.38
2023-06-30T10:38:16.504Z,3.03
2023-06-30T10:40:43.508Z,2.97
2023-06-30T10:43:11.513Z,3.72
2023-06-30T10:46:05.623Z,2.97
2023-06-30T10:48:33.071Z,3.40
2023-06-30T10:51:00.220Z,2.63
2023-06-30T10:53:28.375Z,3.88
2023-06-30T10:55:58.804Z,2.70
2023-06-30T11:01:07.845Z,3.35
2023-06-30T11:04:20.254Z,2.03
2023-06-30T11:06:47.868Z,3.15
2023-06-30T11:09:15.170Z,2.47
2023-06-30T11:11:52.544Z,2.65
2023-06-30T11:14:35.512Z,2.70
2023-06-30T11:17:07.510Z,3.20
2023-06-30T11:19:40.463Z,2.70
2023-06-30T11:22:24.602Z,2.47
2023-06-30T11:24:52.025Z,2.50
2023-06-30T11:27:20.185Z,2.90
2023-06-30T11:29:50.151Z,2.28
2023-06-30T11:32:19.546Z,3.03
2023-06-30T11:34:47.378Z,2.70
2023-06-30T11:37:14.450Z,2.67
2023-06-30T11:39:41.646Z,2.03
2023-06-30T11:42:08.663Z,2.03
2023-06-30T11:44:38.470Z,1.92
2023-06-30T11:47:06.126Z,2.75
2023-06-30T11:49:39.764Z,1.92
2023-06-30T11:52:07.852Z,2.97
2023-06-30T11:54:35.390Z,3.42
2023-06-30T11:57:02.553Z,2.70
2023-06-30T11:59:29.672Z,1.95
2023-06-30T12:01:56.865Z,4.00
2023-06-30T12:04:37.112Z,2.05
2023-06-30T12:07:07.255Z,1.85
2023-06-30T12:09:35.554Z,2.17
2023-06-30T12:12:02.774Z,2.00
2023-06-30T12:14:30.113Z,2.30
2023-06-30T12:16:57.741Z,2.35
2023-06-30T12:19:27.230Z,1.35
2023-06-30T12:22:02.849Z,1.40
2023-06-30T12:24:33.900Z,1.45
2023-06-30T12:27:06.214Z,1.67
2023-06-30T12:29:35.210Z,1.48
2023-06-30T12:32:11.917Z,2.00
2023-06-30T12:34:39.984Z,1.88
2023-06-30T12:37:07.073Z,1.35
2023-06-30T12:39:34.090Z,1.42
2023-06-30T12:42:01.166Z,1.60
2023-06-30T12:44:28.213Z,1.65
2023-06-30T12:47:09.621Z,1.20
2023-06-30T12:49:38.874Z,1.70
2023-06-30T12:52:06.412Z,1.70
2023-06-30T12:54:33.913Z,1.67
2023-06-30T12:57:01.166Z,1.35
2023-06-30T12:59:28.237Z,1.55
2023-06-30T13:01:55.494Z,1.20
2023-06-30T13:04:22.726Z,1.00
2023-06-30T13:06:50.095Z,1.38
2023-06-30T13:09:17.155Z,1.38
2023-06-30T13:11:44.258Z,1.38
2023-06-30T13:14:11.701Z,1.92
2023-06-30T13:16:38.716Z,1.30
2023-06-30T13:19:05.753Z,5.25
2023-06-30T13:21:32.849Z,5.18
2023-06-30T13:24:03.056Z,2.30
2023-06-30T13:26:30.195Z,1.20
2023-06-30T13:28:57.186Z,1.33
2023-06-30T13:31:24.378Z,1.75
2023-06-30T13:33:51.504Z,1.15
2023-06-30T13:36:18.423Z,1.27
2023-06-30T13:38:45.425Z,1.30
2023-06-30T13:41:13.381Z,1.10
2023-06-30T13:43:40.874Z,1.40
2023-06-30T13:46:07.929Z,1.20
2023-06-30T13:48:36.548Z,1.30
2023-06-30T13:51:03.674Z,3.17
2023-06-30T13:53:30.804Z,1.20
2023-06-30T13:55:59.762Z,1.20
2023-06-30T13:58:26.967Z,1.27
2023-06-30T14:00:53.918Z,1.27
2023-06-30T14:03:20.993Z,1.27
2023-06-30T14:05:51.281Z,2.15
2023-06-30T14:08:19.324Z,1.30
2023-06-30T14:10:46.523Z,1.70
2023-06-30T14:13:13.817Z,1.50
2023-06-30T14:15:40.795Z,1.40
2023-06-30T14:18:07.881Z,1.10
2023-06-30T14:20:35.008Z,1.88
2023-06-30T14:23:01.942Z,1.63
2023-06-30T14:25:28.910Z,1.85
2023-06-30T14:27:55.996Z,1.80
2023-06-30T14:30:29.613Z,1.60
2023-06-30T14:32:57.027Z,1.60
2023-06-30T14:35:24.094Z,1.80
2023-06-30T14:37:51.163Z,1.90
2023-06-30T14:40:18.175Z,1.70
2023-06-30T14:42:45.142Z,1.40
2023-06-30T14:45:12.822Z,2.13
2023-06-30T14:47:42.310Z,1.55
2023-06-30T14:50:09.667Z,1.50
2023-06-30T14:52:36.820Z,1.50
2023-06-30T14:55:05.206Z,1.88
2023-06-30T14:57:32.248Z,1.73
2023-06-30T14:59:59.177Z,1.45
2023-06-30T15:02:26.510Z,1.52
2023-06-30T15:04:53.662Z,1.40
2023-06-30T15:07:20.706Z,1.50
2023-06-30T15:09:47.687Z,1.75
2023-06-30T15:12:14.992Z,4.40
2023-06-30T15:14:42.011Z,2.25
2023-06-30T15:17:09.072Z,1.40
2023-06-30T15:19:36.625Z,1.63
2023-06-30T15:22:03.797Z,2.05
2023-06-30T15:24:30.736Z,1.80
2023-06-30T15:26:57.799Z,1.83
2023-06-30T15:29:24.972Z,1.73
2023-06-30T15:31:53.928Z,2.13
2023-06-30T15:34:22.424Z,2.05
2023-06-30T15:36:49.511Z,2.47
2023-06-30T15:39:16.716Z,1.90
2023-06-30T15:41:45.141Z,1.80
2023-06-30T15:44:12.300Z,2.20
2023-06-30T15:46:39.592Z,2.30
2023-06-30T15:49:06.759Z,2.15
2023-06-30T15:51:34.652Z,1.73
2023-06-30T15:54:02.245Z,1.73
2023-06-30T15:56:29.300Z,1.70
2023-06-30T15:58:56.274Z,2.05
2023-06-30T16:01:23.417Z,2.17
2023-06-30T16:03:50.593Z,1.70
2023-06-30T16:06:17.861Z,2.28
2023-06-30T16:08:44.985Z,1.70
2023-06-30T16:11:12.512Z,2.67
2023-06-30T16:13:39.695Z,1.75
2023-06-30T16:16:06.741Z,3.20
2023-06-30T16:18:33.739Z,1.65
2023-06-30T16:21:00.673Z,2.75
2023-06-30T16:23:27.576Z,1.85
2023-06-30T16:25:54.797Z,10.50
2023-06-30T16:28:22.208Z,2.15
2023-06-30T16:30:49.220Z,4.03
2023-06-30T16:33:17.376Z,1.83
2023-06-30T16:35:45.010Z,1.70
2023-06-30T16:38:12.283Z,2.03
2023-06-30T16:40:39.608Z,1.80
2023-06-30T16:43:06.577Z,2.00
2023-06-30T16:45:34.816Z,2.28
2023-06-30T16:48:01.998Z,1.50
2023-06-30T16:50:29.173Z,2.10
2023-06-30T16:52:56.097Z,2.22
2023-06-30T16:55:23.219Z,3.45
2023-06-30T16:57:50.295Z,2.17
2023-06-30T17:00:18.075Z,1.90
2023-06-30T17:02:45.135Z,1.92
2023-06-30T17:05:12.431Z,2.50
2023-06-30T17:07:39.609Z,2.60
2023-06-30T17:10:07.059Z,2.67
2023-06-30T17:12:34.993Z,4.00
2023-06-30T17:15:02.165Z,2.00
2023-06-30T17:17:29.221Z,2.17
2023-06-30T17:19:56.379Z,2.72
2023-06-30T17:22:23.352Z,1.80
2023-06-30T17:24:50.758Z,2.50
2023-06-30T17:27:17.816Z,2.30
2023-06-30T17:29:46.534Z,2.67
2023-06-30T17:32:13.473Z,2.10
2023-06-30T17:34:40.567Z,3.08
2023-06-30T17:37:08.856Z,4.50
2023-06-30T17:39:36.749Z,2.50
2023-06-30T17:42:03.907Z,2.60
2023-06-30T17:44:32.163Z,2.35
2023-06-30T17:46:59.563Z,2.40
2023-06-30T17:49:31.647Z,2.95
2023-06-30T17:52:00.382Z,3.88
2023-06-30T17:54:28.794Z,2.70
2023-06-30T17:56:56.023Z,3.25
2023-06-30T17:59:23.527Z,3.08
2023-06-30T18:01:51.308Z,2.97
2023-06-30T18:04:18.529Z,3.50
2023-06-30T18:07:23.773Z,2.60
2023-06-30T18:09:50.899Z,2.60
2023-06-30T18:12:17.862Z,2.80
2023-06-30T18:14:44.799Z,2.58
2023-06-30T18:17:12.129Z,2.22
2023-06-30T18:19:41.869Z,3.55
2023-06-30T18:22:09.223Z,2.45
2023-06-30T18:24:36.244Z,2.33
2023-06-30T18:27:03.426Z,2.13
2023-06-30T18:29:30.566Z,2.10
2023-06-30T18:32:00.498Z,2.30
2023-06-30T18:34:28.043Z,2.33
2023-06-30T18:36:54.999Z,2.13
2023-06-30T18:39:22.044Z,2.03
2023-06-30T18:41:49.266Z,1.88
2023-06-30T18:44:16.332Z,2.17
2023-06-30T18:46:43.454Z,1.98
2023-06-30T18:49:12.456Z,2.00
2023-06-30T18:51:40.459Z,2.00
2023-06-30T18:54:07.512Z,2.20
2023-06-30T18:56:34.694Z,1.70
2023-06-30T18:59:02.767Z,1.80
2023-06-30T19:01:30.143Z,1.92
2023-06-30T19:03:57.597Z,1.98
2023-06-30T19:06:26.137Z,1.88
2023-06-30T19:08:57.383Z,2.47
2023-06-30T19:11:24.504Z,2.17
2023-06-30T19:13:52.012Z,1.73
2023-06-30T19:16:19.405Z,1.92
2023-06-30T19:18:47.380Z,2.03
2023-06-30T19:21:14.987Z,3.00
2023-06-30T19:23:42.325Z,1.67
2023-06-30T19:26:10.808Z,2.53
2023-06-30T19:28:40.423Z,2.45
2023-06-30T19:31:07.437Z,2.33
2023-06-30T19:33:35.773Z,1.98
2023-06-30T19:36:03.450Z,2.20
2023-06-30T19:38:30.333Z,2.42
2023-06-30T19:40:57.797Z,2.20
2023-06-30T19:43:25.114Z,2.30
2023-06-30T19:45:52.095Z,2.08
2023-06-30T19:48:22.017Z,2.63
2023-06-30T19:50:49.253Z,2.22
2023-06-30T19:53:16.418Z,1.73
2023-06-30T19:55:43.551Z,2.70
2023-06-30T19:58:11.063Z,2.38
2023-06-30T20:00:39.197Z,1.80
2023-06-30T20:03:06.933Z,2.63
2023-06-30T20:05:34.339Z,2.75
2023-06-30T20:08:01.329Z,2.85
2023-06-30T20:10:28.302Z,2.35
2023-06-30T20:12:55.285Z,2.00
2023-06-30T20:15:22.180Z,1.98
2023-06-30T20:17:49.239Z,1.80
2023-06-30T20:20:16.473Z,2.13
2023-06-30T20:22:43.491Z,1.90
2023-06-30T20:25:11.240Z,1.85
2023-06-30T20:27:39.701Z,1.90
2023-06-30T20:30:09.156Z,2.40
2023-06-30T20:32:36.286Z,2.53
2023-06-30T20:35:03.386Z,2.50
2023-06-30T20:37:30.393Z,2.50
2023-06-30T20:39:57.669Z,2.50
2023-06-30T20:42:24.848Z,2.40
2023-06-30T20:44:51.741Z,2.47
2023-06-30T20:47:19.104Z,2.55
2023-06-30T20:49:46.359Z,1.98
2023-06-30T20:52:13.280Z,3.15
2023-06-30T20:54:40.428Z,2.88
2023-06-30T20:57:07.839Z,2.25
2023-06-30T20:59:34.775Z,3.00
2023-06-30T21:02:02.710Z,2.85
2023-06-30T21:04:29.986Z,2.13
2023-06-30T21:06:57.043Z,2.42
2023-06-30T21:09:23.988Z,2.00
2023-06-30T21:11:51.201Z,2.50
2023-06-30T21:14:21.514Z,2.53
2023-06-30T21:16:49.215Z,2.60
2023-06-30T21:19:16.963Z,2.70
2023-06-30T21:21:44.067Z,2.72
2023-06-30T21:24:11.567Z,2.22
2023-06-30T21:26:39.339Z,2.55
2023-06-30T21:29:06.538Z,2.53
2023-06-30T21:31:33.612Z,2.03
2023-06-30T21:34:00.763Z,2.85
2023-06-30T21:36:27.976Z,2.72
2023-06-30T21:38:55.044Z,4.53
2023-06-30T21:41:22.972Z,2.58
2023-06-30T21:43:49.971Z,2.80
2023-06-30T21:46:17.789Z,2.78
2023-06-30T21:48:44.843Z,2.63
2023-06-30T21:51:11.893Z,3.15
2023-06-30T21:53:38.994Z,3.03
2023-06-30T21:56:06.068Z,2.88
2023-06-30T21:58:33.367Z,3.42
2023-06-30T22:01:01.254Z,2.40
2023-06-30T22:03:28.807Z,2.70
2023-06-30T22:05:57.164Z,2.80
2023-06-30T22:08:27.249Z,2.70
2023-06-30T22:10:56.842Z,2.95
2023-06-30T22:13:23.797Z,2.33
2023-06-30T22:15:50.788Z,2.60
2023-06-30T22:18:17.893Z,3.05
2023-06-30T22:20:44.861Z,2.78
2023-06-30T22:23:11.993Z,2.47
2023-06-30T22:25:40.752Z,2.70
2023-06-30T22:28:07.893Z,3.47
2023-06-30T22:30:34.837Z,2.72
2023-06-30T22:33:01.995Z,2.42
2023-06-30T22:35:29.141Z,3.08
2023-06-30T22:37:56.185Z,2.90
2023-06-30T22:40:23.362Z,2.58
2023-06-30T22:42:50.377Z,3.00
2023-06-30T22:45:17.382Z,2.78
2023-06-30T22:47:45.034Z,2.58
2023-06-30T22:50:12.142Z,2.90
2023-06-30T22:52:42.129Z,2.75
2023-06-30T22:55:09.913Z,3.00
2023-06-30T22:57:37.196Z,2.90
2023-06-30T23:00:09.552Z,2.95
2023-06-30T23:02:37.205Z,3.28
2023-06-30T23:05:05.345Z,2.83
2023-06-30T23:07:33.271Z,2.30
2023-06-30T23:10:00.306Z,2.90
2023-06-30T23:12:27.724Z,2.92
2023-06-30T23:14:55.238Z,2.95
2023-06-30T23:17:26.402Z,3.05
2023-06-30T23:19:53.967Z,2.72
2023-06-30T23:22:21.085Z,3.30
2023-06-30T23:24:49.755Z,3.00
2023-06-30T23:27:18.324Z,3.25
2023-06-30T23:29:50.405Z,3.88
2023-06-30T23:32:21.273Z,3.03
2023-06-30T23:34:49.019Z,3.08
2023-06-30T23:37:19.989Z,3.63
2023-06-30T23:39:51.668Z,3.33
2023-06-30T23:42:19.107Z,4.07
2023-06-30T23:44:46.132Z,3.53
2023-06-30T23:47:15.606Z,3.13
2023-06-30T23:49:42.848Z,2.92
2023-06-30T23:52:10.306Z,3.33
2023-06-30T23:54:37.289Z,2.40
2023-06-30T23:57:05.165Z,3.17
2023-06-30T23:59:32.075Z,3.30
